Neijiang, China
Current Conditions -  °F | °C
As of 4:00 AM on Friday 28 Nov 2014 (Local Time) from ZUCK Reporting Station
Haze Haze  
Wind Chill: 54°   Ceiling: 2000
Heat Index: 54°   Visibility: 2.8mi
Dew Point: 52°   Wind: 4mph
Humidity: 94%   Direction: 20°NNE
Pressure: 30"   Gusts: NA
Location:  29.58°N, 105.05°E
Report Text: ZUCK 272000Z 02002MPS 4500 BR FEW016 BKN020 12/11 Q1016 NOSIG
Loading
Personal Weather Stations






























Interactive Weather Map New forecast layout! Learn more

10-Day Weather Forecast

Advertisements
Track Severe Weather on mobile